sensor_id;sensor_type;location;lat;lon;timestamp;pressure;altitude;pressure_sealevel;temperature;humidity
51239;BME280;38154;47.548;18.828;2024-03-02T00:00:44;98097.94;;;10.14;100.00
51239;BME280;38154;47.548;18.828;2024-03-02T00:03:10;98091.97;;;10.02;100.00
51239;BME280;38154;47.548;18.828;2024-03-02T00:05:37;98091.12;;;9.97;100.00
51239;BME280;38154;47.548;18.828;2024-03-02T00:08:04;98093.75;;;9.94;100.00
51239;BME280;38154;47.548;18.828;2024-03-02T00:10:35;98104.19;;;9.88;100.00
51239;BME280;38154;47.548;18.828;2024-03-02T00:13:02;98102.50;;;9.84;100.00
51239;BME280;38154;47.548;18.828;2024-03-02T00:15:40;98107.72;;;9.82;100.00
51239;BME280;38154;47.548;18.828;2024-03-02T00:18:12;98098.13;;;9.92;100.00
51239;BME280;38154;47.548;18.828;2024-03-02T00:20:38;98090.25;;;9.97;100.00
51239;BME280;38154;47.548;18.828;2024-03-02T00:23:08;98085.91;;;9.97;100.00
51239;BME280;38154;47.548;18.828;2024-03-02T00:28:11;98085.91;;;9.99;100.00
51239;BME280;38154;47.548;18.828;2024-03-02T00:33:08;98077.19;;;10.00;100.00
51239;BME280;38154;47.548;18.828;2024-03-02T00:35:33;98077.31;;;9.83;100.00
51239;BME280;38154;47.548;18.828;2024-03-02T00:38:03;98080.03;;;9.66;100.00
51239;BME280;38154;47.548;18.828;2024-03-02T00:40:29;98083.59;;;9.53;100.00
51239;BME280;38154;47.548;18.828;2024-03-02T00:42:55;98078.41;;;9.48;100.00
51239;BME280;38154;47.548;18.828;2024-03-02T00:45:21;98066.34;;;9.35;100.00
51239;BME280;38154;47.548;18.828;2024-03-02T00:47:47;98076.81;;;9.27;100.00
51239;BME280;38154;47.548;18.828;2024-03-02T00:50:13;98077.66;;;9.26;100.00
51239;BME280;38154;47.548;18.828;2024-03-02T00:52:39;98068.16;;;9.19;100.00
51239;BME280;38154;47.548;18.828;2024-03-02T00:55:05;98075.06;;;9.23;100.00
51239;BME280;38154;47.548;18.828;2024-03-02T00:57:31;98071.59;;;9.27;100.00
51239;BME280;38154;47.548;18.828;2024-03-02T01:00:00;98068.09;;;9.29;100.00
51239;BME280;38154;47.548;18.828;2024-03-02T01:02:25;98074.19;;;9.28;100.00
51239;BME280;38154;47.548;18.828;2024-03-02T01:04:52;98072.47;;;9.18;100.00
51239;BME280;38154;47.548;18.828;2024-03-02T01:07:17;98077.72;;;9.14;100.00
51239;BME280;38154;47.548;18.828;2024-03-02T01:09:43;98080.34;;;9.06;100.00
51239;BME280;38154;47.548;18.828;2024-03-02T01:12:09;98085.59;;;8.98;100.00
51239;BME280;38154;47.548;18.828;2024-03-02T01:14:34;98077.75;;;9.00;100.00
51239;BME280;38154;47.548;18.828;2024-03-02T01:17:00;98078.59;;;9.08;100.00
51239;BME280;38154;47.548;18.828;2024-03-02T01:19:29;98078.63;;;9.03;100.00
51239;BME280;38154;47.548;18.828;2024-03-02T01:21:55;98070.84;;;9.02;100.00
51239;BME280;38154;47.548;18.828;2024-03-02T01:24:21;98076.06;;;8.94;100.00
51239;BME280;38154;47.548;18.828;2024-03-02T01:26:46;98077.81;;;8.90;100.00
51239;BME280;38154;47.548;18.828;2024-03-02T01:29:12;98067.41;;;8.86;100.00
51239;BME280;38154;47.548;18.828;2024-03-02T01:31:38;98070.06;;;8.78;100.00
51239;BME280;38154;47.548;18.828;2024-03-02T01:34:07;98065.72;;;8.83;100.00
51239;BME280;38154;47.548;18.828;2024-03-02T01:36:33;98062.22;;;8.80;100.00
51239;BME280;38154;47.548;18.828;2024-03-02T01:38:58;98062.25;;;8.77;100.00
51239;BME280;38154;47.548;18.828;2024-03-02T01:41:24;98063.13;;;8.72;100.00
51239;BME280;38154;47.548;18.828;2024-03-02T01:43:50;98051.88;;;8.63;100.00
51239;BME280;38154;47.548;18.828;2024-03-02T01:46:16;98051.94;;;8.50;100.00
51239;BME280;38154;47.548;18.828;2024-03-02T01:48:41;98054.53;;;8.53;100.00
51239;BME280;38154;47.548;18.828;2024-03-02T01:51:07;98049.31;;;8.46;100.00
51239;BME280;38154;47.548;18.828;2024-03-02T01:53:33;98058.00;;;8.43;100.00
51239;BME280;38154;47.548;18.828;2024-03-02T01:55:59;98054.53;;;8.38;100.00
51239;BME280;38154;47.548;18.828;2024-03-02T01:58:25;98054.53;;;8.35;100.00
51239;BME280;38154;47.548;18.828;2024-03-02T02:00:51;98048.44;;;8.34;100.00
51239;BME280;38154;47.548;18.828;2024-03-02T02:03:16;98048.47;;;8.45;100.00
51239;BME280;38154;47.548;18.828;2024-03-02T02:05:42;98054.53;;;8.50;100.00
51239;BME280;38154;47.548;18.828;2024-03-02T02:08:08;98051.91;;;8.41;100.00
51239;BME280;38154;47.548;18.828;2024-03-02T02:10:34;98052.78;;;8.54;100.00
51239;BME280;38154;47.548;18.828;2024-03-02T02:13:00;98055.38;;;8.48;100.00
51239;BME280;38154;47.548;18.828;2024-03-02T02:15:29;98051.06;;;8.45;100.00
51239;BME280;38154;47.548;18.828;2024-03-02T02:17:55;98069.25;;;8.45;100.00
51239;BME280;38154;47.548;18.828;2024-03-02T02:20:21;98078.78;;;8.46;100.00
51239;BME280;38154;47.548;18.828;2024-03-02T02:23:03;98085.69;;;8.49;100.00
51239;BME280;38154;47.548;18.828;2024-03-02T02:25:29;98085.69;;;8.47;100.00
51239;BME280;38154;47.548;18.828;2024-03-02T02:27:55;98098.69;;;8.46;100.00
51239;BME280;38154;47.548;18.828;2024-03-02T02:30:25;98100.44;;;8.45;100.00
51239;BME280;38154;47.548;18.828;2024-03-02T02:32:51;98103.87;;;8.46;100.00
51239;BME280;38154;47.548;18.828;2024-03-02T02:35:16;98100.44;;;8.48;100.00
51239;BME280;38154;47.548;18.828;2024-03-02T02:37:42;98109.94;;;8.48;100.00
51239;BME280;38154;47.548;18.828;2024-03-02T02:40:09;98104.75;;;8.48;100.00
51239;BME280;38154;47.548;18.828;2024-03-02T02:42:34;98111.69;;;8.50;100.00
51239;BME280;38154;47.548;18.828;2024-03-02T02:45:00;98109.94;;;8.52;100.00
51239;BME280;38154;47.548;18.828;2024-03-02T02:47:26;98111.69;;;8.57;100.00
51239;BME280;38154;47.548;18.828;2024-03-02T02:49:51;98109.09;;;8.53;100.00
51239;BME280;38154;47.548;18.828;2024-03-02T02:52:17;98103.87;;;8.53;100.00
51239;BME280;38154;47.548;18.828;2024-03-02T02:54:44;98104.75;;;8.54;100.00
51239;BME280;38154;47.548;18.828;2024-03-02T02:57:09;98100.44;;;8.53;100.00
51239;BME280;38154;47.548;18.828;2024-03-02T02:59:35;98094.34;;;8.54;100.00
51239;BME280;38154;47.548;18.828;2024-03-02T03:02:01;98094.34;;;8.56;100.00
51239;BME280;38154;47.548;18.828;2024-03-02T03:04:26;98103.87;;;8.53;100.00
51239;BME280;38154;47.548;18.828;2024-03-02T03:06:52;98094.34;;;8.49;100.00
51239;BME280;38154;47.548;18.828;2024-03-02T03:09:18;98096.94;;;8.49;100.00
51239;BME280;38154;47.548;18.828;2024-03-02T03:11:43;98091.75;;;8.51;100.00
51239;BME280;38154;47.548;18.828;2024-03-02T03:14:09;98092.59;;;8.54;100.00
51239;BME280;38154;47.548;18.828;2024-03-02T03:16:35;98100.44;;;8.53;100.00
51239;BME280;38154;47.548;18.828;2024-03-02T03:19:01;98107.34;;;8.57;100.00
51239;BME280;38154;47.548;18.828;2024-03-02T03:21:26;98106.50;;;8.53;100.00
51239;BME280;38154;47.548;18.828;2024-03-02T03:23:52;98105.59;;;8.54;100.00
51239;BME280;38154;47.548;18.828;2024-03-02T03:26:18;98103.03;;;8.53;100.00
51239;BME280;38154;47.548;18.828;2024-03-02T03:28:43;98109.94;;;8.54;100.00
51239;BME280;38154;47.548;18.828;2024-03-02T03:31:09;98110.81;;;8.59;100.00
51239;BME280;38154;47.548;18.828;2024-03-02T03:33:36;98106.50;;;8.57;100.00
51239;BME280;38154;47.548;18.828;2024-03-02T03:36:01;98110.81;;;8.51;100.00
51239;BME280;38154;47.548;18.828;2024-03-02T03:38:29;98108.19;;;8.54;100.00
51239;BME280;38154;47.548;18.828;2024-03-02T03:40:54;98110.81;;;8.56;100.00
51239;BME280;38154;47.548;18.828;2024-03-02T03:43:20;98099.53;;;8.51;100.00
51239;BME280;38154;47.548;18.828;2024-03-02T03:45:46;98096.97;;;8.46;100.00
51239;BME280;38154;47.548;18.828;2024-03-02T03:48:11;98100.44;;;8.45;100.00
51239;BME280;38154;47.548;18.828;2024-03-02T03:50:37;98098.69;;;8.49;100.00
51239;BME280;38154;47.548;18.828;2024-03-02T03:53:03;98103.87;;;8.50;100.00
51239;BME280;38154;47.548;18.828;2024-03-02T03:55:29;98096.94;;;8.56;100.00
51239;BME280;38154;47.548;18.828;2024-03-02T03:57:54;98102.16;;;8.54;100.00
51239;BME280;38154;47.548;18.828;2024-03-02T04:00:20;98096.94;;;8.51;100.00
51239;BME280;38154;47.548;18.828;2024-03-02T04:02:46;98104.75;;;8.54;100.00
51239;BME280;38154;47.548;18.828;2024-03-02T04:05:11;98113.41;;;8.59;100.00
51239;BME280;38154;47.548;18.828;2024-03-02T04:07:37;98114.25;;;8.61;100.00
51239;BME280;38154;47.548;18.828;2024-03-02T04:10:06;98112.53;;;8.54;100.00
51239;BME280;38154;47.548;18.828;2024-03-02T04:12:33;98116.88;;;8.49;100.00
51239;BME280;38154;47.548;18.828;2024-03-02T04:15:00;98114.25;;;8.41;100.00
51239;BME280;38154;47.548;18.828;2024-03-02T04:17:27;98120.38;;;8.45;100.00
51239;BME280;38154;47.548;18.828;2024-03-02T04:19:52;98118.56;;;8.36;100.00
51239;BME280;38154;47.548;18.828;2024-03-02T04:22:18;98122.91;;;8.29;100.00
51239;BME280;38154;47.548;18.828;2024-03-02T04:24:43;98131.56;;;8.24;100.00
51239;BME280;38154;47.548;18.828;2024-03-02T04:27:09;98125.50;;;8.15;100.00
51239;BME280;38154;47.548;18.828;2024-03-02T04:29:35;98128.09;;;8.15;100.00
51239;BME280;38154;47.548;18.828;2024-03-02T04:32:00;98133.28;;;8.09;100.00
51239;BME280;38154;47.548;18.828;2024-03-02T04:34:26;98125.50;;;8.03;100.00
51239;BME280;38154;47.548;18.828;2024-03-02T04:36:52;98127.25;;;7.98;100.00
51239;BME280;38154;47.548;18.828;2024-03-02T04:39:17;98127.22;;;7.92;100.00
51239;BME280;38154;47.548;18.828;2024-03-02T04:41:43;98128.97;;;7.90;100.00
51239;BME280;38154;47.548;18.828;2024-03-02T04:44:09;98133.28;;;7.91;100.00
51239;BME280;38154;47.548;18.828;2024-03-02T04:46:34;98128.94;;;7.88;100.00
51239;BME280;38154;47.548;18.828;2024-03-02T04:49:00;98129.81;;;7.87;100.00
51239;BME280;38154;47.548;18.828;2024-03-02T04:51:25;98133.28;;;7.83;100.00
51239;BME280;38154;47.548;18.828;2024-03-02T04:53:51;98135.00;;;7.79;100.00
51239;BME280;38154;47.548;18.828;2024-03-02T04:56:17;98134.09;;;7.77;100.00
51239;BME280;38154;47.548;18.828;2024-03-02T04:58:48;98136.72;;;7.73;100.00
51239;BME280;38154;47.548;18.828;2024-03-02T05:01:14;98130.66;;;7.69;100.00
51239;BME280;38154;47.548;18.828;2024-03-02T05:03:42;98137.56;;;7.73;100.00
51239;BME280;38154;47.548;18.828;2024-03-02T05:06:07;98141.03;;;7.69;100.00
51239;BME280;38154;47.548;18.828;2024-03-02T05:08:34;98135.81;;;7.71;100.00
51239;BME280;38154;47.548;18.828;2024-03-02T05:10:59;98141.91;;;7.71;100.00
51239;BME280;38154;47.548;18.828;2024-03-02T05:13:45;98135.84;;;7.68;100.00
51239;BME280;38154;47.548;18.828;2024-03-02T05:16:10;98140.16;;;7.61;100.00
51239;BME280;38154;47.548;18.828;2024-03-02T05:18:37;98146.19;;;7.58;100.00
51239;BME280;38154;47.548;18.828;2024-03-02T05:21:03;98141.84;;;7.53;100.00
51239;BME280;38154;47.548;18.828;2024-03-02T05:23:29;98139.25;;;7.54;100.00
51239;BME280;38154;47.548;18.828;2024-03-02T05:25:54;98142.69;;;7.52;100.00
51239;BME280;38154;47.548;18.828;2024-03-02T05:28:20;98146.16;;;7.55;100.00
51239;BME280;38154;47.548;18.828;2024-03-02T05:30:45;98142.72;;;7.55;100.00
51239;BME280;38154;47.548;18.828;2024-03-02T05:33:12;98143.56;;;7.49;100.00
51239;BME280;38154;47.548;18.828;2024-03-02T05:35:38;98146.16;;;7.52;100.00
51239;BME280;38154;47.548;18.828;2024-03-02T05:38:04;98141.84;;;7.50;100.00
51239;BME280;38154;47.548;18.828;2024-03-02T05:40:29;98142.69;;;7.52;100.00
51239;BME280;38154;47.548;18.828;2024-03-02T05:42:55;98140.13;;;7.58;100.00
51239;BME280;38154;47.548;18.828;2024-03-02T05:45:21;98136.66;;;7.50;100.00
51239;BME280;38154;47.548;18.828;2024-03-02T05:47:46;98137.53;;;7.55;100.00
51239;BME280;38154;47.548;18.828;2024-03-02T05:50:12;98139.28;;;7.67;100.00
51239;BME280;38154;47.548;18.828;2024-03-02T05:52:38;98139.25;;;7.60;100.00
51239;BME280;38154;47.548;18.828;2024-03-02T05:55:04;98146.19;;;7.61;100.00
51239;BME280;38154;47.548;18.828;2024-03-02T05:57:30;98144.47;;;7.68;100.00
51239;BME280;38154;47.548;18.828;2024-03-02T06:00:19;98146.19;;;7.61;100.00
51239;BME280;38154;47.548;18.828;2024-03-02T06:02:44;98147.06;;;7.62;100.00
51239;BME280;38154;47.548;18.828;2024-03-02T06:05:10;98143.63;;;7.69;100.00
51239;BME280;38154;47.548;18.828;2024-03-02T06:07:36;98141.00;;;7.71;100.00
51239;BME280;38154;47.548;18.828;2024-03-02T06:10:02;98141.91;;;7.73;100.00
51239;BME280;38154;47.548;18.828;2024-03-02T06:12:30;98145.38;;;7.76;100.00
51239;BME280;38154;47.548;18.828;2024-03-02T06:14:56;98149.69;;;7.76;100.00
51239;BME280;38154;47.548;18.828;2024-03-02T06:17:21;98150.53;;;7.73;100.00
51239;BME280;38154;47.548;18.828;2024-03-02T06:19:47;98152.28;;;7.79;100.00
51239;BME280;38154;47.548;18.828;2024-03-02T06:22:13;98158.34;;;7.73;100.00
51239;BME280;38154;47.548;18.828;2024-03-02T06:24:38;98159.22;;;7.80;100.00
51239;BME280;38154;47.548;18.828;2024-03-02T06:27:04;98165.28;;;7.76;100.00
51239;BME280;38154;47.548;18.828;2024-03-02T06:29:33;98174.78;;;7.77;100.00
51239;BME280;38154;47.548;18.828;2024-03-02T06:32:01;98171.34;;;7.79;100.00
51239;BME280;38154;47.548;18.828;2024-03-02T06:34:27;98174.78;;;7.75;100.00
51239;BME280;38154;47.548;18.828;2024-03-02T06:36:53;98171.28;;;7.70;100.00
51239;BME280;38154;47.548;18.828;2024-03-02T06:39:19;98179.06;;;7.67;100.00
51239;BME280;38154;47.548;18.828;2024-03-02T06:41:44;98177.31;;;7.61;100.00
51239;BME280;38154;47.548;18.828;2024-03-02T06:44:12;98188.56;;;7.56;100.00
51239;BME280;38154;47.548;18.828;2024-03-02T06:46:38;98183.34;;;7.59;100.00
51239;BME280;38154;47.548;18.828;2024-03-02T06:49:04;98180.75;;;7.59;100.00
51239;BME280;38154;47.548;18.828;2024-03-02T06:51:30;98175.59;;;7.64;100.00
51239;BME280;38154;47.548;18.828;2024-03-02T06:53:56;98177.34;;;7.65;100.00
51239;BME280;38154;47.548;18.828;2024-03-02T06:56:21;98182.53;;;7.71;100.00
51239;BME280;38154;47.548;18.828;2024-03-02T06:58:47;98177.34;;;7.68;100.00
51239;BME280;38154;47.548;18.828;2024-03-02T07:01:13;98184.28;;;7.75;100.00
51239;BME280;38154;47.548;18.828;2024-03-02T07:03:38;98182.53;;;7.72;100.00
51239;BME280;38154;47.548;18.828;2024-03-02T07:06:06;98180.84;;;7.76;100.00
51239;BME280;38154;47.548;18.828;2024-03-02T07:08:32;98184.28;;;7.73;100.00
51239;BME280;38154;47.548;18.828;2024-03-02T07:10:58;98182.56;;;7.80;100.00
51239;BME280;38154;47.548;18.828;2024-03-02T07:13:24;98188.63;;;7.80;100.00
51239;BME280;38154;47.548;18.828;2024-03-02T07:15:50;98185.19;;;7.82;100.00
51239;BME280;38154;47.548;18.828;2024-03-02T07:18:27;98186.06;;;7.97;100.00
51239;BME280;38154;47.548;18.828;2024-03-02T07:20:53;98187.81;;;8.00;100.00
51239;BME280;38154;47.548;18.828;2024-03-02T07:23:19;98184.34;;;8.03;100.00
51239;BME280;38154;47.548;18.828;2024-03-02T07:25:46;98189.56;;;8.12;100.00
51239;BME280;38154;47.548;18.828;2024-03-02T07:28:11;98184.38;;;8.13;100.00
51239;BME280;38154;47.548;18.828;2024-03-02T07:30:37;98196.50;;;8.22;100.00
51239;BME280;38154;47.548;18.828;2024-03-02T07:33:04;98185.25;;;8.29;100.00
51239;BME280;38154;47.548;18.828;2024-03-02T07:35:30;98191.31;;;8.38;100.00
51239;BME280;38154;47.548;18.828;2024-03-02T07:37:57;98193.03;;;8.32;100.00
51239;BME280;38154;47.548;18.828;2024-03-02T07:40:23;98200.00;;;8.35;100.00
51239;BME280;38154;47.548;18.828;2024-03-02T07:42:48;98198.31;;;8.46;100.00
51239;BME280;38154;47.548;18.828;2024-03-02T07:45:14;98195.69;;;8.57;100.00
51239;BME280;38154;47.548;18.828;2024-03-02T07:47:40;98202.63;;;8.63;100.00
51239;BME280;38154;47.548;18.828;2024-03-02T07:50:06;98202.63;;;8.60;100.00
51239;BME280;38154;47.548;18.828;2024-03-02T07:52:32;98201.75;;;8.67;100.00
51239;BME280;38154;47.548;18.828;2024-03-02T07:54:58;98200.03;;;8.73;100.00
51239;BME280;38154;47.548;18.828;2024-03-02T07:57:23;98202.59;;;8.87;100.00
51239;BME280;38154;47.548;18.828;2024-03-02T07:59:49;98205.22;;;8.90;100.00
51239;BME280;38154;47.548;18.828;2024-03-02T08:02:15;98206.09;;;8.83;100.00
51239;BME280;38154;47.548;18.828;2024-03-02T08:04:41;98210.44;;;8.75;100.00
51239;BME280;38154;47.548;18.828;2024-03-02T08:07:06;98215.63;;;8.77;100.00
51239;BME280;38154;47.548;18.828;2024-03-02T08:09:32;98213.00;;;8.81;100.00
51239;BME280;38154;47.548;18.828;2024-03-02T08:11:58;98213.00;;;8.84;100.00
51239;BME280;38154;47.548;18.828;2024-03-02T08:14:23;98221.66;;;8.91;100.00
51239;BME280;38154;47.548;18.828;2024-03-02T08:16:49;98217.31;;;8.95;100.00
51239;BME280;38154;47.548;18.828;2024-03-02T08:19:15;98216.47;;;8.96;100.00
51239;BME280;38154;47.548;18.828;2024-03-02T08:21:42;98216.47;;;9.02;100.00
51239;BME280;38154;47.548;18.828;2024-03-02T08:24:08;98220.78;;;9.04;100.00
51239;BME280;38154;47.548;18.828;2024-03-02T08:26:33;98223.38;;;9.03;100.00
51239;BME280;38154;47.548;18.828;2024-03-02T08:28:59;98225.09;;;9.13;100.00
51239;BME280;38154;47.548;18.828;2024-03-02T08:31:27;98221.59;;;9.25;100.00
51239;BME280;38154;47.548;18.828;2024-03-02T08:33:53;98222.50;;;9.21;100.00
51239;BME280;38154;47.548;18.828;2024-03-02T08:36:18;98227.69;;;9.30;100.00
51239;BME280;38154;47.548;18.828;2024-03-02T08:38:45;98225.09;;;9.25;100.00
51239;BME280;38154;47.548;18.828;2024-03-02T08:41:10;98219.00;;;9.26;100.00
51239;BME280;38154;47.548;18.828;2024-03-02T08:43:38;98225.94;;;9.27;100.00
51239;BME280;38154;47.548;18.828;2024-03-02T08:46:05;98226.81;;;9.25;100.00
51239;BME280;38154;47.548;18.828;2024-03-02T08:48:31;98227.69;;;9.22;100.00
51239;BME280;38154;47.548;18.828;2024-03-02T08:50:56;98232.03;;;9.11;100.00
51239;BME280;38154;47.548;18.828;2024-03-02T08:53:22;98229.44;;;9.06;100.00
51239;BME280;38154;47.548;18.828;2024-03-02T08:55:48;98230.28;;;9.22;100.00
51239;BME280;38154;47.548;18.828;2024-03-02T08:58:14;98228.53;;;9.23;100.00
51239;BME280;38154;47.548;18.828;2024-03-02T09:00:40;98227.69;;;9.24;100.00
51239;BME280;38154;47.548;18.828;2024-03-02T09:03:05;98229.44;;;9.23;100.00
51239;BME280;38154;47.548;18.828;2024-03-02T09:05:31;98239.81;;;9.33;100.00
51239;BME280;38154;47.548;18.828;2024-03-02T09:07:57;98234.59;;;9.28;100.00
51239;BME280;38154;47.548;18.828;2024-03-02T09:10:23;98236.34;;;9.18;100.00
51239;BME280;38154;47.548;18.828;2024-03-02T09:12:48;98233.75;;;9.24;100.00
51239;BME280;38154;47.548;18.828;2024-03-02T09:15:14;98232.03;;;9.22;100.00
51239;BME280;38154;47.548;18.828;2024-03-02T09:17:40;98237.25;;;9.19;100.00
51239;BME280;38154;47.548;18.828;2024-03-02T09:20:06;98232.84;;;9.32;100.00
51239;BME280;38154;47.548;18.828;2024-03-02T09:22:32;98228.50;;;9.49;100.00
51239;BME280;38154;47.548;18.828;2024-03-02T09:24:57;98230.25;;;9.41;100.00
51239;BME280;38154;47.548;18.828;2024-03-02T09:27:23;98238.09;;;9.25;100.00
51239;BME280;38154;47.548;18.828;2024-03-02T09:29:49;98237.22;;;9.25;100.00
51239;BME280;38154;47.548;18.828;2024-03-02T09:32:15;98234.63;;;9.19;100.00
51239;BME280;38154;47.548;18.828;2024-03-02T09:34:41;98232.03;;;9.23;100.00
51239;BME280;38154;47.548;18.828;2024-03-02T09:37:06;98236.34;;;9.26;100.00
51239;BME280;38154;47.548;18.828;2024-03-02T09:39:33;98237.22;;;9.28;100.00
51239;BME280;38154;47.548;18.828;2024-03-02T09:41:58;98234.59;;;9.34;100.00
51239;BME280;38154;47.548;18.828;2024-03-02T09:44:24;98239.81;;;9.25;100.00
51239;BME280;38154;47.548;18.828;2024-03-02T09:46:51;98245.03;;;9.06;100.00
51239;BME280;38154;47.548;18.828;2024-03-02T09:49:17;98232.94;;;9.01;100.00
51239;BME280;38154;47.548;18.828;2024-03-02T09:51:46;98230.31;;;8.98;100.00
51239;BME280;38154;47.548;18.828;2024-03-02T09:54:12;98241.59;;;8.90;100.00
51239;BME280;38154;47.548;18.828;2024-03-02T09:56:38;98236.41;;;8.87;100.00
51239;BME280;38154;47.548;18.828;2024-03-02T09:59:04;98230.34;;;8.87;100.00
51239;BME280;38154;47.548;18.828;2024-03-02T10:01:30;98233.81;;;8.87;100.00
51239;BME280;38154;47.548;18.828;2024-03-02T10:03:58;98239.00;;;8.84;100.00
51239;BME280;38154;47.548;18.828;2024-03-02T10:06:25;98232.94;;;8.84;100.00
51239;BME280;38154;47.548;18.828;2024-03-02T10:08:51;98230.34;;;8.81;100.00
51239;BME280;38154;47.548;18.828;2024-03-02T10:14:09;98233.81;;;8.77;100.00
51239;BME280;38154;47.548;18.828;2024-03-02T10:16:42;98233.81;;;8.72;100.00
51239;BME280;38154;47.548;18.828;2024-03-02T10:19:21;98229.47;;;8.56;100.00
51239;BME280;38154;47.548;18.828;2024-03-02T10:21:50;98232.94;;;8.64;100.00
51239;BME280;38154;47.548;18.828;2024-03-02T10:24:20;98231.22;;;8.60;100.00
51239;BME280;38154;47.548;18.828;2024-03-02T10:26:46;98230.34;;;8.45;100.00
51239;BME280;38154;47.548;18.828;2024-03-02T10:29:12;98234.66;;;8.56;100.00
51239;BME280;38154;47.548;18.828;2024-03-02T10:31:38;98233.81;;;8.53;100.00
51239;BME280;38154;47.548;18.828;2024-03-02T10:34:04;98231.22;;;8.57;100.00
51239;BME280;38154;47.548;18.828;2024-03-02T10:36:30;98237.28;;;8.60;100.00
51239;BME280;38154;47.548;18.828;2024-03-02T10:38:56;98233.81;;;8.69;100.00
51239;BME280;38154;47.548;18.828;2024-03-02T10:41:26;98233.81;;;8.69;100.00
51239;BME280;38154;47.548;18.828;2024-03-02T10:43:52;98229.47;;;8.79;100.00
51239;BME280;38154;47.548;18.828;2024-03-02T10:46:30;98229.47;;;8.79;100.00
51239;BME280;38154;47.548;18.828;2024-03-02T10:48:57;98236.41;;;8.64;100.00
51239;BME280;38154;47.548;18.828;2024-03-02T10:51:27;98227.75;;;8.61;100.00
51239;BME280;38154;47.548;18.828;2024-03-02T10:53:55;98218.22;;;8.66;100.00
51239;BME280;38154;47.548;18.828;2024-03-02T10:56:21;98231.22;;;8.69;100.00
51239;BME280;38154;47.548;18.828;2024-03-02T10:58:50;98220.81;;;8.61;100.00
51239;BME280;38154;47.548;18.828;2024-03-02T11:01:16;98224.28;;;8.63;100.00
51239;BME280;38154;47.548;18.828;2024-03-02T11:03:42;98232.06;;;8.77;100.00
51239;BME280;38154;47.548;18.828;2024-03-02T11:06:10;98218.22;;;8.78;100.00
51239;BME280;38154;47.548;18.828;2024-03-02T11:08:37;98220.78;;;8.81;100.00
51239;BME280;38154;47.548;18.828;2024-03-02T11:11:12;98227.75;;;8.82;100.00
51239;BME280;38154;47.548;18.828;2024-03-02T11:13:40;98223.41;;;8.69;100.00
51239;BME280;38154;47.548;18.828;2024-03-02T11:16:09;98220.81;;;8.73;100.00
51239;BME280;38154;47.548;18.828;2024-03-02T11:18:38;98218.22;;;8.70;100.00
51239;BME280;38154;47.548;18.828;2024-03-02T11:21:04;98217.34;;;8.87;100.00
51239;BME280;38154;47.548;18.828;2024-03-02T11:23:33;98214.72;;;8.95;100.00
51239;BME280;38154;47.548;18.828;2024-03-02T11:28:46;98214.69;;;9.15;100.00
51239;BME280;38154;47.548;18.828;2024-03-02T11:31:12;98207.75;;;9.21;100.00
51239;BME280;38154;47.548;18.828;2024-03-02T11:33:38;98203.44;;;9.19;100.00
51239;BME280;38154;47.548;18.828;2024-03-02T11:36:05;98207.72;;;9.26;100.00
51239;BME280;38154;47.548;18.828;2024-03-02T11:38:33;98205.06;;;9.41;100.00
51239;BME280;38154;47.548;18.828;2024-03-02T11:40:59;98208.50;;;9.60;100.00
51239;BME280;38154;47.548;18.828;2024-03-02T11:43:26;98201.47;;;9.76;100.00
51239;BME280;38154;47.548;18.828;2024-03-02T11:45:56;98207.53;;;9.77;100.00
51239;BME280;38154;47.548;18.828;2024-03-02T11:48:22;98205.81;;;9.76;100.00
51239;BME280;38154;47.548;18.828;2024-03-02T11:50:50;98205.00;;;9.63;100.00
51239;BME280;38154;47.548;18.828;2024-03-02T11:53:16;98210.25;;;9.54;100.00
51239;BME280;38154;47.548;18.828;2024-03-02T11:55:42;98203.25;;;9.66;100.00
51239;BME280;38154;47.548;18.828;2024-03-02T11:58:16;98203.25;;;9.68;100.00
51239;BME280;38154;47.548;18.828;2024-03-02T12:00:46;98202.41;;;9.63;100.00
51239;BME280;38154;47.548;18.828;2024-03-02T12:03:12;98192.91;;;9.54;100.00
51239;BME280;38154;47.548;18.828;2024-03-02T12:05:38;98200.69;;;9.57;100.00
51239;BME280;38154;47.548;18.828;2024-03-02T12:08:05;98198.97;;;9.50;100.00
51239;BME280;38154;47.548;18.828;2024-03-02T12:10:35;98202.47;;;9.47;100.00
51239;BME280;38154;47.548;18.828;2024-03-02T12:15:27;98201.66;;;9.27;100.00
51239;BME280;38154;47.548;18.828;2024-03-02T12:17:56;98198.22;;;9.19;100.00
51239;BME280;38154;47.548;18.828;2024-03-02T12:20:23;98196.47;;;9.30;100.00
51239;BME280;38154;47.548;18.828;2024-03-02T12:22:50;98194.72;;;9.37;100.00
51239;BME280;38154;47.548;18.828;2024-03-02T12:25:17;98203.38;;;9.36;100.00
51239;BME280;38154;47.548;18.828;2024-03-02T12:27:43;98193.81;;;9.47;100.00
51239;BME280;38154;47.548;18.828;2024-03-02T12:30:09;98196.31;;;9.69;100.00
51239;BME280;38154;47.548;18.828;2024-03-02T12:32:37;98191.88;;;9.92;100.00
51239;BME280;38154;47.548;18.828;2024-03-02T12:35:04;98192.59;;;10.13;100.00
51239;BME280;38154;47.548;18.828;2024-03-02T12:37:30;98196.88;;;10.20;100.00
51239;BME280;38154;47.548;18.828;2024-03-02T12:39:55;98198.66;;;10.18;100.00
51239;BME280;38154;47.548;18.828;2024-03-02T12:42:21;98195.13;;;10.24;100.00
51239;BME280;38154;47.548;18.828;2024-03-02T12:44:47;98191.62;;;10.29;100.00
51239;BME280;38154;47.548;18.828;2024-03-02T12:47:12;98198.53;;;10.38;100.00
51239;BME280;38154;47.548;18.828;2024-03-02T12:49:39;98192.41;;;10.44;100.00
51239;BME280;38154;47.548;18.828;2024-03-02T12:52:05;98197.63;;;10.45;100.00
51239;BME280;38154;47.548;18.828;2024-03-02T12:54:31;98195.84;;;10.50;100.00
51239;BME280;38154;47.548;18.828;2024-03-02T12:56:58;98193.22;;;10.49;100.00
51239;BME280;38154;47.548;18.828;2024-03-02T12:59:24;98195.94;;;10.30;100.00